createdAt,value
2023-04-20T00:00:37.925Z,62.37
2023-04-20T00:03:04.826Z,61.44
2023-04-20T00:05:34.554Z,61.70
2023-04-20T00:08:01.470Z,61.55
2023-04-20T00:10:28.210Z,61.58
2023-04-20T00:12:54.913Z,61.33
2023-04-20T00:15:21.675Z,61.29
2023-04-20T00:17:49.483Z,62.12
2023-04-20T00:20:16.217Z,62.14
2023-04-20T00:22:43.181Z,62.59
2023-04-20T00:25:10.242Z,62.54
2023-04-20T00:27:37.039Z,62.26
2023-04-20T00:30:04.027Z,62.27
2023-04-20T00:32:31.163Z,61.67
2023-04-20T00:34:58.233Z,62.18
2023-04-20T00:37:25.918Z,62.51
2023-04-20T00:39:55.682Z,62.97
2023-04-20T00:42:22.444Z,62.35
2023-04-20T00:44:51.526Z,61.63
2023-04-20T00:47:18.300Z,62.13
2023-04-20T00:49:45.236Z,61.76
2023-04-20T00:52:11.953Z,61.50
2023-04-20T00:54:39.236Z,62.20
2023-04-20T00:57:06.011Z,62.72
2023-04-20T00:59:34.808Z,63.49
2023-04-20T01:02:01.781Z,63.37
2023-04-20T01:04:29.297Z,63.29
2023-04-20T01:06:58.382Z,63.11
2023-04-20T01:09:25.147Z,63.11
2023-04-20T01:11:51.887Z,63.34
2023-04-20T01:14:18.659Z,63.75
2023-04-20T01:16:47.361Z,63.83
2023-04-20T01:19:14.137Z,64.34
2023-04-20T01:21:41.015Z,64.43
2023-04-20T01:24:08.112Z,64.46
2023-04-20T01:26:35.029Z,64.62
2023-04-20T01:29:01.862Z,64.70
2023-04-20T01:31:28.629Z,64.14
2023-04-20T01:33:55.424Z,65.04
2023-04-20T01:36:22.620Z,64.44
2023-04-20T01:38:49.605Z,63.49
2023-04-20T01:41:16.350Z,64.96
2023-04-20T01:43:43.541Z,65.20
2023-04-20T01:46:12.333Z,65.03
2023-04-20T01:48:39.946Z,65.07
2023-04-20T01:51:06.720Z,64.48
2023-04-20T01:53:33.422Z,64.81
2023-04-20T01:56:00.158Z,64.92
2023-04-20T01:58:27.000Z,65.29
2023-04-20T02:00:54.759Z,65.85
2023-04-20T02:03:21.765Z,64.16
2023-04-20T02:05:48.852Z,65.55
2023-04-20T02:08:15.623Z,65.06
2023-04-20T02:10:42.325Z,64.79
2023-04-20T02:13:09.273Z,64.70
2023-04-20T02:15:36.289Z,64.19
2023-04-20T02:18:04.058Z,64.71
2023-04-20T02:20:30.993Z,65.05
2023-04-20T02:22:57.845Z,65.00
2023-04-20T02:25:24.638Z,65.09
2023-04-20T02:27:51.490Z,65.38
2023-04-20T02:30:18.318Z,65.73
2023-04-20T02:32:45.091Z,65.45
2023-04-20T02:35:12.570Z,65.81
2023-04-20T02:37:39.455Z,65.87
2023-04-20T02:40:07.451Z,66.02
2023-04-20T02:42:34.261Z,65.76
2023-04-20T02:45:02.943Z,65.94
2023-04-20T02:47:30.669Z,65.68
2023-04-20T02:49:57.459Z,65.73
2023-04-20T02:52:24.740Z,65.59
2023-04-20T02:54:52.528Z,66.61
2023-04-20T02:57:19.272Z,66.84
2023-04-20T02:59:46.279Z,67.17
2023-04-20T03:02:16.889Z,67.38
2023-04-20T03:04:44.300Z,68.00
2023-04-20T03:07:21.092Z,67.95
2023-04-20T03:09:49.313Z,67.24
2023-04-20T03:12:24.754Z,67.26
2023-04-20T03:15:00.371Z,67.69
2023-04-20T03:17:59.195Z,67.82
2023-04-20T03:20:26.018Z,68.03
2023-04-20T03:22:53.110Z,68.03
2023-04-20T03:25:23.067Z,67.91
2023-04-20T03:27:54.050Z,68.57
2023-04-20T03:30:21.493Z,68.38
2023-04-20T03:32:53.694Z,68.83
2023-04-20T03:35:21.178Z,69.04
2023-04-20T03:37:48.191Z,68.84
2023-04-20T03:40:15.172Z,68.28
2023-04-20T03:42:41.976Z,69.10
2023-04-20T03:45:09.273Z,69.12
2023-04-20T03:47:36.308Z,68.72
2023-04-20T03:50:03.501Z,68.96
2023-04-20T03:52:30.336Z,69.50
2023-04-20T03:54:59.169Z,68.29
2023-04-20T03:57:25.872Z,68.53
2023-04-20T03:59:52.956Z,68.70
2023-04-20T04:02:22.919Z,68.87
2023-04-20T04:04:50.692Z,68.34
2023-04-20T04:07:17.466Z,68.71
2023-04-20T04:09:44.226Z,68.20
2023-04-20T04:12:12.532Z,68.19
2023-04-20T04:14:39.744Z,68.98
2023-04-20T04:17:08.326Z,68.52
2023-04-20T04:19:37.628Z,68.92
2023-04-20T04:22:04.449Z,69.27
2023-04-20T04:24:37.991Z,69.38
2023-04-20T04:27:09.415Z,69.27
2023-04-20T04:29:42.458Z,69.10
2023-04-20T04:32:14.165Z,68.77
2023-04-20T04:34:44.459Z,69.21
2023-04-20T04:37:12.066Z,69.29
2023-04-20T04:39:43.310Z,69.60
2023-04-20T04:42:19.019Z,69.39
2023-04-20T04:44:46.538Z,69.55
2023-04-20T04:47:20.093Z,69.57
2023-04-20T04:49:46.940Z,69.58
2023-04-20T04:52:13.760Z,70.06
2023-04-20T04:54:40.550Z,69.75
2023-04-20T04:57:07.482Z,70.37
2023-04-20T04:59:34.269Z,70.20
2023-04-20T05:02:01.097Z,70.08
2023-04-20T05:04:27.981Z,70.35
2023-04-20T05:06:54.799Z,70.67
2023-04-20T05:09:21.653Z,70.71
2023-04-20T05:11:48.363Z,70.63
2023-04-20T05:14:15.125Z,70.67
2023-04-20T05:16:41.929Z,70.19
2023-04-20T05:19:08.718Z,70.43
2023-04-20T05:21:36.279Z,70.60
2023-04-20T05:24:03.058Z,70.53
2023-04-20T05:26:29.754Z,70.27
2023-04-20T05:28:56.423Z,70.41
2023-04-20T05:31:23.145Z,70.47
2023-04-20T05:33:49.868Z,70.41
2023-04-20T05:36:17.214Z,69.89
2023-04-20T05:38:44.497Z,70.13
2023-04-20T05:41:11.844Z,70.34
2023-04-20T05:43:38.614Z,70.12
2023-04-20T05:46:05.528Z,70.07
2023-04-20T05:48:32.325Z,69.78
2023-04-20T05:50:59.020Z,69.59
2023-04-20T05:53:26.351Z,69.66
2023-04-20T05:55:53.068Z,70.07
2023-04-20T05:58:19.916Z,70.07
2023-04-20T06:00:47.842Z,69.69
2023-04-20T06:03:14.789Z,70.56
2023-04-20T06:05:41.753Z,70.53
2023-04-20T06:08:08.712Z,70.46
2023-04-20T06:10:35.531Z,70.35
2023-04-20T06:13:02.257Z,70.04
2023-04-20T06:15:28.930Z,69.53
2023-04-20T06:17:55.753Z,69.50
2023-04-20T06:20:23.155Z,69.43
2023-04-20T06:22:50.077Z,69.35
2023-04-20T06:25:16.810Z,69.67
2023-04-20T06:27:43.634Z,69.89
2023-04-20T06:30:10.877Z,69.90
2023-04-20T06:32:38.312Z,70.09
2023-04-20T06:35:08.848Z,70.05
2023-04-20T06:37:36.421Z,69.77
2023-04-20T06:40:08.229Z,69.47
2023-04-20T06:42:35.422Z,69.47
2023-04-20T06:45:02.575Z,69.21
2023-04-20T06:47:32.075Z,68.42
2023-04-20T06:49:59.821Z,68.62
2023-04-20T06:52:27.139Z,68.29
2023-04-20T06:54:54.115Z,68.19
2023-04-20T06:57:20.834Z,68.24
2023-04-20T06:59:47.587Z,68.04
2023-04-20T07:02:14.450Z,67.79
2023-04-20T07:04:41.402Z,66.84
2023-04-20T07:07:08.141Z,67.11
2023-04-20T07:09:35.128Z,67.24
2023-04-20T07:12:02.696Z,66.50
2023-04-20T07:14:29.422Z,66.97
2023-04-20T07:16:56.277Z,66.59
2023-04-20T07:19:23.553Z,67.01
2023-04-20T07:21:50.292Z,66.69
2023-04-20T07:24:17.001Z,66.61
2023-04-20T07:26:43.749Z,66.34
2023-04-20T07:29:10.529Z,66.96
2023-04-20T07:31:37.249Z,66.82
2023-04-20T07:34:04.210Z,67.53
2023-04-20T07:36:31.122Z,66.43
2023-04-20T07:38:57.921Z,65.98
2023-04-20T07:41:24.658Z,66.20
2023-04-20T07:43:51.648Z,65.21
2023-04-20T07:46:22.546Z,64.72
2023-04-20T07:48:49.398Z,64.70
2023-04-20T07:51:16.186Z,64.84
2023-04-20T07:53:42.989Z,64.26
2023-04-20T07:56:09.771Z,64.17
2023-04-20T07:58:39.273Z,63.52
2023-04-20T08:01:06.277Z,62.74
2023-04-20T08:03:33.954Z,62.74
2023-04-20T08:06:00.937Z,62.26
2023-04-20T08:08:27.787Z,61.82
2023-04-20T08:10:57.694Z,62.26
2023-04-20T08:13:24.858Z,61.17
2023-04-20T08:15:52.045Z,61.33
2023-04-20T08:18:20.662Z,61.35
2023-04-20T08:20:48.018Z,60.14
2023-04-20T08:23:15.093Z,59.74
2023-04-20T08:25:41.847Z,59.47
2023-04-20T08:28:11.947Z,59.86
2023-04-20T08:30:42.216Z,60.23
2023-04-20T08:33:09.038Z,60.38
2023-04-20T08:35:35.873Z,60.80
2023-04-20T08:38:02.623Z,60.95
2023-04-20T08:40:31.374Z,61.23
2023-04-20T08:42:59.924Z,61.49
2023-04-20T08:45:27.236Z,62.21
2023-04-20T08:47:54.581Z,63.00
2023-04-20T08:50:21.395Z,63.22
2023-04-20T08:52:48.265Z,62.87
2023-04-20T08:55:17.004Z,62.09
2023-04-20T08:57:44.005Z,61.69
2023-04-20T09:00:13.591Z,61.89
2023-04-20T09:02:54.815Z,62.31
2023-04-20T09:05:29.901Z,61.84
2023-04-20T09:08:01.296Z,62.87
2023-04-20T09:10:40.115Z,62.34
2023-04-20T09:13:06.905Z,62.76
2023-04-20T09:15:33.946Z,62.22
2023-04-20T09:18:12.424Z,62.76
2023-04-20T09:20:39.126Z,63.84
2023-04-20T09:23:16.023Z,63.57
2023-04-20T09:25:45.246Z,63.17
2023-04-20T09:28:13.528Z,62.32
2023-04-20T09:30:45.393Z,62.79
2023-04-20T09:33:14.587Z,61.41
2023-04-20T09:35:42.870Z,62.07
2023-04-20T09:38:10.219Z,61.21
2023-04-20T09:40:37.135Z,59.39
2023-04-20T09:43:15.319Z,60.46
2023-04-20T09:45:42.474Z,61.51
2023-04-20T09:48:09.625Z,60.55
2023-04-20T09:50:48.322Z,60.62
2023-04-20T09:53:17.479Z,60.25
2023-04-20T09:55:52.139Z,60.06
2023-04-20T09:58:24.033Z,59.64
2023-04-20T10:00:51.179Z,59.83
2023-04-20T10:03:19.316Z,60.91
2023-04-20T10:05:46.512Z,60.11
2023-04-20T10:08:13.581Z,59.96
2023-04-20T10:10:58.254Z,60.84
2023-04-20T10:13:33.497Z,60.85
2023-04-20T10:16:02.839Z,60.27
2023-04-20T10:18:29.622Z,61.12
2023-04-20T10:21:09.788Z,61.69
2023-04-20T10:23:47.965Z,61.25
2023-04-20T10:26:14.662Z,61.20
2023-04-20T10:28:43.038Z,60.96
2023-04-20T10:31:13.399Z,61.30
2023-04-20T10:33:49.989Z,62.81
2023-04-20T10:36:29.166Z,62.00
2023-04-20T10:38:56.163Z,63.01
2023-04-20T10:41:23.247Z,64.76
2023-04-20T10:43:50.334Z,66.07
2023-04-20T10:46:22.007Z,67.43
2023-04-20T10:48:53.228Z,66.92
2023-04-20T10:51:20.570Z,67.97
2023-04-20T10:54:05.328Z,69.05
2023-04-20T10:56:47.714Z,69.24
2023-04-20T10:59:18.484Z,69.64
2023-04-20T11:01:46.946Z,70.56
2023-04-20T11:04:16.214Z,70.62
2023-04-20T11:06:46.996Z,71.79
2023-04-20T11:09:26.499Z,72.58
2023-04-20T11:12:04.188Z,72.77
2023-04-20T11:14:32.347Z,73.51
2023-04-20T11:16:59.498Z,73.53
2023-04-20T11:19:29.767Z,74.29
2023-04-20T11:21:56.988Z,74.09
2023-04-20T11:24:34.612Z,74.27
2023-04-20T11:27:02.385Z,74.38
2023-04-20T11:29:34.328Z,74.11
2023-04-20T11:32:07.289Z,74.24
2023-04-20T11:34:35.536Z,73.77
2023-04-20T11:37:06.729Z,74.41
2023-04-20T11:39:33.790Z,73.50
2023-04-20T11:42:00.532Z,72.38
2023-04-20T11:44:27.507Z,70.34
2023-04-20T11:46:54.972Z,70.30
2023-04-20T11:49:22.059Z,69.19
2023-04-20T11:51:49.117Z,67.43
2023-04-20T11:54:16.312Z,68.15
2023-04-20T11:56:43.093Z,67.36
2023-04-20T11:59:09.858Z,68.59
2023-04-20T12:01:37.733Z,68.32
2023-04-20T12:04:05.099Z,69.01
2023-04-20T12:06:32.150Z,68.45
2023-04-20T12:08:59.144Z,68.18
2023-04-20T12:11:26.256Z,68.88
2023-04-20T12:13:54.670Z,67.73
2023-04-20T12:16:21.544Z,67.36
2023-04-20T12:18:48.699Z,67.42
2023-04-20T12:21:15.441Z,68.52
2023-04-20T12:23:42.930Z,68.44
2023-04-20T12:26:09.625Z,68.04
2023-04-20T12:28:36.784Z,68.52
2023-04-20T12:31:03.766Z,68.74
2023-04-20T12:33:30.598Z,68.77
2023-04-20T12:35:57.269Z,69.08
2023-04-20T12:38:23.951Z,69.50
2023-04-20T12:40:50.896Z,68.73
2023-04-20T12:43:20.872Z,69.33
2023-04-20T12:45:48.578Z,68.32
2023-04-20T12:48:15.868Z,68.27
2023-04-20T12:50:42.634Z,68.04
2023-04-20T12:53:09.429Z,68.03
2023-04-20T12:55:36.194Z,67.67
2023-04-20T12:58:02.958Z,68.23
2023-04-20T13:00:29.952Z,67.14
2023-04-20T13:02:56.854Z,67.36
2023-04-20T13:05:23.743Z,67.59
2023-04-20T13:07:50.418Z,67.99
2023-04-20T13:10:17.403Z,67.67
2023-04-20T13:12:44.132Z,67.14
2023-04-20T13:15:11.332Z,67.92
2023-04-20T13:17:38.063Z,68.07
2023-04-20T13:20:05.198Z,68.09
2023-04-20T13:22:32.332Z,68.72
2023-04-20T13:24:59.009Z,68.86
2023-04-20T13:27:25.699Z,68.93
2023-04-20T13:29:52.463Z,68.28
2023-04-20T13:32:19.344Z,67.60
2023-04-20T13:34:46.264Z,68.38
2023-04-20T13:37:13.476Z,66.46
2023-04-20T13:39:41.107Z,66.99
2023-04-20T13:42:07.994Z,67.85
2023-04-20T13:44:35.609Z,67.38
2023-04-20T13:47:02.697Z,68.30
2023-04-20T13:49:29.513Z,68.33
2023-04-20T13:51:56.449Z,68.01
2023-04-20T13:54:23.452Z,67.60
2023-04-20T13:56:50.123Z,67.13
2023-04-20T13:59:16.810Z,67.60
2023-04-20T14:01:43.903Z,67.83
2023-04-20T14:04:10.793Z,67.91
2023-04-20T14:06:38.529Z,66.80
2023-04-20T14:09:05.374Z,67.21
2023-04-20T14:11:33.763Z,68.02
2023-04-20T14:14:00.616Z,67.90
2023-04-20T14:16:28.039Z,68.21
2023-04-20T14:18:55.364Z,68.53
2023-04-20T14:21:22.523Z,68.48
2023-04-20T14:23:53.757Z,67.89
2023-04-20T14:26:21.068Z,68.73
2023-04-20T14:28:47.893Z,68.69
2023-04-20T14:31:14.791Z,69.20
2023-04-20T14:33:44.840Z,69.40
2023-04-20T14:36:12.324Z,69.16
2023-04-20T14:38:39.185Z,69.33
2023-04-20T14:41:08.376Z,69.23
2023-04-20T14:43:38.704Z,68.39
2023-04-20T14:46:06.283Z,69.17
2023-04-20T14:48:33.320Z,69.93
2023-04-20T14:51:05.876Z,70.31
2023-04-20T14:53:33.218Z,71.62
2023-04-20T14:56:00.044Z,72.34
2023-04-20T14:58:26.777Z,72.64
2023-04-20T15:00:54.331Z,72.36
2023-04-20T15:03:21.444Z,73.03
2023-04-20T15:05:48.559Z,73.84
2023-04-20T15:08:15.665Z,73.87
2023-04-20T15:10:42.444Z,74.21
2023-04-20T15:13:09.277Z,74.03
2023-04-20T15:15:47.485Z,74.58
2023-04-20T15:18:16.231Z,74.76
2023-04-20T15:20:43.095Z,74.81
2023-04-20T15:23:09.893Z,74.62
2023-04-20T15:25:36.642Z,75.35
2023-04-20T15:28:03.392Z,75.28
2023-04-20T15:30:31.287Z,75.37
2023-04-20T15:33:05.260Z,75.61
2023-04-20T15:35:32.876Z,76.00
2023-04-20T15:37:59.677Z,76.00
2023-04-20T15:40:27.598Z,76.27
2023-04-20T15:42:55.850Z,75.83
2023-04-20T15:45:23.246Z,76.29
2023-04-20T15:47:50.244Z,76.28
2023-04-20T15:50:17.345Z,76.19
2023-04-20T15:52:44.712Z,76.47
2023-04-20T15:55:11.824Z,76.53
2023-04-20T15:57:38.505Z,76.57
2023-04-20T16:00:05.869Z,76.86
2023-04-20T16:02:38.659Z,76.91
2023-04-20T16:05:07.079Z,76.85
2023-04-20T16:07:33.975Z,76.72
2023-04-20T16:10:00.779Z,76.67
2023-04-20T16:12:27.890Z,77.17
2023-04-20T16:14:54.582Z,76.96
2023-04-20T16:17:21.698Z,77.27
2023-04-20T16:19:48.502Z,77.20
2023-04-20T16:22:15.201Z,77.44
2023-04-20T16:24:41.880Z,77.39
2023-04-20T16:27:08.681Z,77.60
2023-04-20T16:29:35.520Z,77.54
2023-04-20T16:32:02.855Z,77.41
2023-04-20T16:34:31.218Z,77.45
2023-04-20T16:36:58.677Z,77.51
2023-04-20T16:39:25.501Z,77.45
2023-04-20T16:41:52.244Z,77.57
2023-04-20T16:44:19.075Z,77.48
2023-04-20T16:46:51.687Z,77.67
2023-04-20T16:49:18.646Z,77.62
2023-04-20T16:51:45.430Z,77.72
2023-04-20T16:54:13.071Z,77.85
2023-04-20T16:56:40.847Z,77.79
2023-04-20T16:59:11.081Z,77.77
2023-04-20T17:01:37.975Z,77.82
2023-04-20T17:04:04.943Z,78.00
2023-04-20T17:06:31.850Z,78.42
2023-04-20T17:09:05.626Z,78.32
2023-04-20T17:11:36.000Z,78.08
2023-04-20T17:14:03.511Z,78.43
2023-04-20T17:16:30.348Z,78.61
2023-04-20T17:18:57.093Z,78.95
2023-04-20T17:21:23.907Z,79.10
2023-04-20T17:23:50.781Z,79.18
2023-04-20T17:26:17.527Z,78.99
2023-04-20T17:28:44.372Z,78.91
2023-04-20T17:31:11.121Z,79.34
2023-04-20T17:33:38.165Z,79.34
2023-04-20T17:36:05.052Z,79.11
2023-04-20T17:38:36.614Z,79.23
2023-04-20T17:41:03.763Z,79.27
2023-04-20T17:43:30.845Z,79.19
2023-04-20T17:46:01.110Z,79.18
2023-04-20T17:48:28.004Z,79.20
2023-04-20T17:50:55.926Z,79.11
2023-04-20T17:53:24.191Z,79.07
2023-04-20T17:55:51.103Z,78.94
2023-04-20T17:58:18.120Z,78.50
2023-04-20T18:00:45.477Z,78.93
2023-04-20T18:03:15.000Z,79.11
2023-04-20T18:05:42.786Z,79.16
2023-04-20T18:08:10.383Z,79.02
2023-04-20T18:10:37.770Z,79.00
2023-04-20T18:13:04.929Z,79.15
2023-04-20T18:15:31.786Z,79.20
2023-04-20T18:17:58.688Z,79.00
2023-04-20T18:20:25.542Z,79.00
2023-04-20T18:22:52.324Z,79.15
2023-04-20T18:25:19.714Z,79.02
2023-04-20T18:27:46.955Z,79.05
2023-04-20T18:30:14.348Z,79.29
2023-04-20T18:32:41.429Z,79.28
2023-04-20T18:35:08.448Z,79.13
2023-04-20T18:37:35.257Z,79.22
2023-04-20T18:40:01.967Z,79.04
2023-04-20T18:42:28.693Z,79.37
2023-04-20T18:44:56.170Z,79.35
2023-04-20T18:47:24.683Z,79.19
2023-04-20T18:49:51.484Z,79.33
2023-04-20T18:52:19.481Z,79.29
2023-04-20T18:54:46.993Z,79.15
2023-04-20T18:57:13.957Z,79.21
2023-04-20T18:59:40.713Z,79.20
2023-04-20T19:02:07.715Z,79.22
2023-04-20T19:04:36.384Z,79.32
2023-04-20T19:07:03.192Z,79.49
2023-04-20T19:09:29.996Z,79.26
2023-04-20T19:11:57.271Z,79.45
2023-04-20T19:14:24.404Z,78.94
2023-04-20T19:16:51.408Z,79.17
2023-04-20T19:19:18.509Z,79.27
2023-04-20T19:21:45.449Z,79.22
2023-04-20T19:24:12.633Z,78.99
2023-04-20T19:26:39.378Z,79.22
2023-04-20T19:29:06.087Z,79.35
2023-04-20T19:31:37.667Z,79.44
2023-04-20T19:34:04.951Z,79.67
2023-04-20T19:36:32.382Z,79.62
2023-04-20T19:38:59.469Z,79.67
2023-04-20T19:41:26.480Z,79.55
2023-04-20T19:43:53.377Z,79.80
2023-04-20T19:46:20.528Z,79.64
2023-04-20T19:48:47.304Z,79.76
2023-04-20T19:51:14.031Z,79.68
2023-04-20T19:53:41.154Z,79.78
2023-04-20T19:56:07.862Z,79.54
2023-04-20T19:58:34.581Z,79.64
2023-04-20T20:01:01.418Z,79.88
2023-04-20T20:03:28.575Z,79.91
2023-04-20T20:05:55.482Z,79.73
2023-04-20T20:08:22.219Z,79.79
2023-04-20T20:10:48.945Z,79.82
2023-04-20T20:13:15.907Z,79.83
2023-04-20T20:15:42.924Z,79.82
2023-04-20T20:18:10.726Z,79.88
2023-04-20T20:20:38.081Z,79.88
2023-04-20T20:23:05.118Z,79.57
2023-04-20T20:25:33.350Z,79.64
2023-04-20T20:28:02.172Z,79.53
2023-04-20T20:30:29.117Z,79.56
2023-04-20T20:32:58.964Z,79.53
2023-04-20T20:35:31.274Z,79.56
2023-04-20T20:37:58.759Z,79.55
2023-04-20T20:40:25.918Z,79.63
2023-04-20T20:42:52.840Z,79.70
2023-04-20T20:45:19.665Z,79.61
2023-04-20T20:47:46.670Z,79.70
2023-04-20T20:50:15.008Z,79.57
2023-04-20T20:52:41.951Z,79.58
2023-04-20T20:55:09.487Z,79.68
2023-04-20T20:57:36.442Z,79.79
2023-04-20T21:00:07.852Z,79.68
2023-04-20T21:02:34.878Z,79.69
2023-04-20T21:05:01.827Z,79.51
2023-04-20T21:07:28.935Z,79.48
2023-04-20T21:09:55.712Z,79.58
2023-04-20T21:12:22.452Z,79.79
2023-04-20T21:14:51.489Z,79.88
2023-04-20T21:17:18.853Z,79.84
2023-04-20T21:19:45.797Z,80.04
2023-04-20T21:22:12.990Z,79.84
2023-04-20T21:24:58.231Z,79.87
2023-04-20T21:27:25.179Z,79.86
2023-04-20T21:29:51.918Z,79.72
2023-04-20T21:32:18.670Z,79.92
2023-04-20T21:34:45.581Z,79.77
2023-04-20T21:37:12.492Z,79.78
2023-04-20T21:39:39.226Z,79.88
2023-04-20T21:42:06.016Z,79.96
2023-04-20T21:44:32.786Z,79.86
2023-04-20T21:47:02.667Z,79.81
2023-04-20T21:49:29.696Z,79.89
2023-04-20T21:51:56.376Z,79.81
2023-04-20T21:54:23.143Z,79.91
2023-04-20T21:56:49.898Z,79.77
2023-04-20T21:59:16.703Z,79.63
2023-04-20T22:01:43.630Z,79.70
2023-04-20T22:04:10.647Z,79.66
2023-04-20T22:06:37.716Z,79.80
2023-04-20T22:09:04.894Z,79.70
2023-04-20T22:11:31.974Z,79.54
2023-04-20T22:13:58.700Z,79.71
2023-04-20T22:16:25.967Z,79.20
2023-04-20T22:18:52.712Z,79.31
2023-04-20T22:21:19.453Z,79.31
2023-04-20T22:23:46.259Z,79.60
2023-04-20T22:26:13.063Z,79.23
2023-04-20T22:28:39.754Z,79.17
2023-04-20T22:31:06.523Z,79.01
2023-04-20T22:33:33.261Z,79.00
2023-04-20T22:36:00.024Z,78.85
2023-04-20T22:38:26.926Z,78.84
2023-04-20T22:40:53.890Z,78.98
2023-04-20T22:43:21.720Z,78.95
2023-04-20T22:45:48.462Z,78.88
2023-04-20T22:48:15.273Z,78.85
2023-04-20T22:50:42.123Z,78.96
2023-04-20T22:53:08.828Z,78.74
2023-04-20T22:55:35.751Z,78.91
2023-04-20T22:58:02.713Z,78.95
2023-04-20T23:00:29.480Z,78.86
2023-04-20T23:02:56.291Z,79.11
2023-04-20T23:05:23.185Z,79.23
2023-04-20T23:07:49.924Z,79.42
2023-04-20T23:10:16.730Z,79.48
2023-04-20T23:12:44.991Z,79.32
2023-04-20T23:15:12.151Z,79.28
2023-04-20T23:17:39.193Z,79.56
2023-04-20T23:20:14.033Z,79.68
2023-04-20T23:22:41.071Z,79.56
2023-04-20T23:25:09.954Z,79.59
2023-04-20T23:27:36.873Z,79.55
2023-04-20T23:30:03.859Z,79.49
2023-04-20T23:32:30.834Z,79.61
2023-04-20T23:34:57.611Z,79.51
2023-04-20T23:37:24.393Z,79.59
2023-04-20T23:39:51.191Z,79.43
2023-04-20T23:42:17.931Z,79.38
2023-04-20T23:44:44.660Z,79.32
2023-04-20T23:47:11.423Z,79.35
2023-04-20T23:49:38.129Z,79.41
2023-04-20T23:52:05.046Z,79.29
2023-04-20T23:54:33.233Z,79.36
2023-04-20T23:57:00.172Z,79.38
2023-04-20T23:59:26.953Z,79.44
